sensor_id;sensor_type;location;lat;lon;timestamp;P1;durP1;ratioP1;P2;durP2;ratioP2
5127;SDS011;2582;48.770;9.190;2023-09-07T00:00:48;4.73;;;3.97;;
5127;SDS011;2582;48.770;9.190;2023-09-07T00:03:14;3.77;;;3.37;;
5127;SDS011;2582;48.770;9.190;2023-09-07T00:05:40;4.07;;;3.77;;
5127;SDS011;2582;48.770;9.190;2023-09-07T00:08:06;4.10;;;3.80;;
5127;SDS011;2582;48.770;9.190;2023-09-07T00:10:32;3.70;;;3.40;;
5127;SDS011;2582;48.770;9.190;2023-09-07T00:13:00;3.73;;;3.43;;
5127;SDS011;2582;48.770;9.190;2023-09-07T00:15:27;5.20;;;3.90;;
5127;SDS011;2582;48.770;9.190;2023-09-07T00:17:53;6.57;;;4.03;;
5127;SDS011;2582;48.770;9.190;2023-09-07T00:20:19;3.60;;;3.10;;
5127;SDS011;2582;48.770;9.190;2023-09-07T00:22:46;4.63;;;4.23;;
5127;SDS011;2582;48.770;9.190;2023-09-07T00:25:12;4.53;;;3.27;;
5127;SDS011;2582;48.770;9.190;2023-09-07T00:27:38;4.73;;;4.30;;
5127;SDS011;2582;48.770;9.190;2023-09-07T00:30:04;4.20;;;3.80;;
5127;SDS011;2582;48.770;9.190;2023-09-07T00:32:31;5.80;;;3.83;;
5127;SDS011;2582;48.770;9.190;2023-09-07T00:34:57;6.20;;;3.80;;
5127;SDS011;2582;48.770;9.190;2023-09-07T00:37:23;4.30;;;3.90;;
5127;SDS011;2582;48.770;9.190;2023-09-07T00:39:48;4.27;;;3.83;;
5127;SDS011;2582;48.770;9.190;2023-09-07T00:42:14;4.93;;;3.80;;
5127;SDS011;2582;48.770;9.190;2023-09-07T00:44:39;3.83;;;3.47;;
5127;SDS011;2582;48.770;9.190;2023-09-07T00:47:05;4.23;;;3.93;;
5127;SDS011;2582;48.770;9.190;2023-09-07T00:49:30;3.53;;;3.10;;
5127;SDS011;2582;48.770;9.190;2023-09-07T00:51:56;3.83;;;3.53;;
5127;SDS011;2582;48.770;9.190;2023-09-07T00:54:22;4.33;;;3.70;;
5127;SDS011;2582;48.770;9.190;2023-09-07T00:56:48;5.17;;;3.50;;
5127;SDS011;2582;48.770;9.190;2023-09-07T00:59:14;4.53;;;4.03;;
5127;SDS011;2582;48.770;9.190;2023-09-07T01:01:39;4.50;;;4.10;;
5127;SDS011;2582;48.770;9.190;2023-09-07T01:04:06;3.90;;;3.50;;
5127;SDS011;2582;48.770;9.190;2023-09-07T01:06:56;6.43;;;4.40;;
5127;SDS011;2582;48.770;9.190;2023-09-07T01:09:23;3.77;;;3.47;;
5127;SDS011;2582;48.770;9.190;2023-09-07T01:11:51;4.60;;;3.60;;
5127;SDS011;2582;48.770;9.190;2023-09-07T01:14:17;4.30;;;3.80;;
5127;SDS011;2582;48.770;9.190;2023-09-07T01:16:43;4.30;;;3.63;;
5127;SDS011;2582;48.770;9.190;2023-09-07T01:19:09;4.83;;;4.10;;
5127;SDS011;2582;48.770;9.190;2023-09-07T01:21:36;4.70;;;4.30;;
5127;SDS011;2582;48.770;9.190;2023-09-07T01:24:07;4.53;;;4.17;;
5127;SDS011;2582;48.770;9.190;2023-09-07T01:26:34;4.60;;;4.20;;
5127;SDS011;2582;48.770;9.190;2023-09-07T01:29:03;5.30;;;4.80;;
5127;SDS011;2582;48.770;9.190;2023-09-07T01:31:30;4.37;;;3.97;;
5127;SDS011;2582;48.770;9.190;2023-09-07T01:33:55;4.40;;;3.97;;
5127;SDS011;2582;48.770;9.190;2023-09-07T01:36:21;3.83;;;3.43;;
5127;SDS011;2582;48.770;9.190;2023-09-07T01:38:46;4.60;;;4.20;;
5127;SDS011;2582;48.770;9.190;2023-09-07T01:41:12;4.63;;;4.10;;
5127;SDS011;2582;48.770;9.190;2023-09-07T01:43:38;4.73;;;4.33;;
5127;SDS011;2582;48.770;9.190;2023-09-07T01:46:04;4.07;;;3.70;;
5127;SDS011;2582;48.770;9.190;2023-09-07T01:48:30;3.87;;;3.57;;
5127;SDS011;2582;48.770;9.190;2023-09-07T01:50:55;4.60;;;4.17;;
5127;SDS011;2582;48.770;9.190;2023-09-07T01:53:21;7.30;;;4.40;;
5127;SDS011;2582;48.770;9.190;2023-09-07T01:55:46;4.50;;;4.10;;
5127;SDS011;2582;48.770;9.190;2023-09-07T01:58:12;5.00;;;4.50;;
5127;SDS011;2582;48.770;9.190;2023-09-07T02:00:38;4.13;;;3.83;;
5127;SDS011;2582;48.770;9.190;2023-09-07T02:03:04;4.90;;;4.50;;
5127;SDS011;2582;48.770;9.190;2023-09-07T02:05:30;4.40;;;4.00;;
5127;SDS011;2582;48.770;9.190;2023-09-07T02:07:57;4.70;;;4.30;;
5127;SDS011;2582;48.770;9.190;2023-09-07T02:10:23;5.10;;;4.70;;
5127;SDS011;2582;48.770;9.190;2023-09-07T02:12:49;4.80;;;4.40;;
5127;SDS011;2582;48.770;9.190;2023-09-07T02:15:14;4.90;;;4.40;;
5127;SDS011;2582;48.770;9.190;2023-09-07T02:17:40;4.43;;;4.03;;
5127;SDS011;2582;48.770;9.190;2023-09-07T02:20:10;5.03;;;3.50;;
5127;SDS011;2582;48.770;9.190;2023-09-07T02:22:36;4.73;;;4.33;;
5127;SDS011;2582;48.770;9.190;2023-09-07T02:25:02;5.53;;;4.80;;
5127;SDS011;2582;48.770;9.190;2023-09-07T02:27:30;5.03;;;4.60;;
5127;SDS011;2582;48.770;9.190;2023-09-07T02:29:56;4.87;;;4.47;;
5127;SDS011;2582;48.770;9.190;2023-09-07T02:32:22;5.20;;;4.70;;
5127;SDS011;2582;48.770;9.190;2023-09-07T02:34:48;6.07;;;5.47;;
5127;SDS011;2582;48.770;9.190;2023-09-07T02:37:14;4.80;;;4.30;;
5127;SDS011;2582;48.770;9.190;2023-09-07T02:39:40;7.40;;;5.20;;
5127;SDS011;2582;48.770;9.190;2023-09-07T02:42:06;5.23;;;4.73;;
5127;SDS011;2582;48.770;9.190;2023-09-07T02:44:32;6.10;;;5.10;;
5127;SDS011;2582;48.770;9.190;2023-09-07T02:46:57;5.60;;;5.10;;
5127;SDS011;2582;48.770;9.190;2023-09-07T02:49:23;5.70;;;5.10;;
5127;SDS011;2582;48.770;9.190;2023-09-07T02:51:48;6.73;;;5.30;;
5127;SDS011;2582;48.770;9.190;2023-09-07T02:54:14;4.97;;;4.50;;
5127;SDS011;2582;48.770;9.190;2023-09-07T02:56:40;6.57;;;6.07;;
5127;SDS011;2582;48.770;9.190;2023-09-07T02:59:05;4.90;;;4.50;;
5127;SDS011;2582;48.770;9.190;2023-09-07T03:01:31;5.70;;;5.20;;
5127;SDS011;2582;48.770;9.190;2023-09-07T03:03:56;5.90;;;4.50;;
5127;SDS011;2582;48.770;9.190;2023-09-07T03:06:22;5.47;;;4.97;;
5127;SDS011;2582;48.770;9.190;2023-09-07T03:08:47;5.73;;;5.23;;
5127;SDS011;2582;48.770;9.190;2023-09-07T03:11:13;5.93;;;5.13;;
5127;SDS011;2582;48.770;9.190;2023-09-07T03:13:38;4.70;;;4.13;;
5127;SDS011;2582;48.770;9.190;2023-09-07T03:16:04;5.30;;;4.80;;
5127;SDS011;2582;48.770;9.190;2023-09-07T03:18:30;5.13;;;4.73;;
5127;SDS011;2582;48.770;9.190;2023-09-07T03:20:58;5.40;;;4.90;;
5127;SDS011;2582;48.770;9.190;2023-09-07T03:23:24;5.63;;;5.13;;
5127;SDS011;2582;48.770;9.190;2023-09-07T03:25:50;6.33;;;5.73;;
5127;SDS011;2582;48.770;9.190;2023-09-07T03:28:16;5.10;;;4.70;;
5127;SDS011;2582;48.770;9.190;2023-09-07T03:30:41;5.73;;;5.13;;
5127;SDS011;2582;48.770;9.190;2023-09-07T03:33:07;5.47;;;5.07;;
5127;SDS011;2582;48.770;9.190;2023-09-07T03:35:32;5.40;;;4.90;;
5127;SDS011;2582;48.770;9.190;2023-09-07T03:37:58;5.67;;;5.17;;
5127;SDS011;2582;48.770;9.190;2023-09-07T03:40:24;6.00;;;5.40;;
5127;SDS011;2582;48.770;9.190;2023-09-07T03:42:49;6.63;;;6.00;;
5127;SDS011;2582;48.770;9.190;2023-09-07T03:45:15;5.40;;;4.90;;
5127;SDS011;2582;48.770;9.190;2023-09-07T03:47:41;5.70;;;5.20;;
5127;SDS011;2582;48.770;9.190;2023-09-07T03:50:07;5.53;;;5.00;;
5127;SDS011;2582;48.770;9.190;2023-09-07T03:52:33;5.03;;;4.63;;
5127;SDS011;2582;48.770;9.190;2023-09-07T03:54:59;5.97;;;5.13;;
5127;SDS011;2582;48.770;9.190;2023-09-07T03:57:25;6.30;;;4.77;;
5127;SDS011;2582;48.770;9.190;2023-09-07T03:59:52;8.53;;;6.33;;
5127;SDS011;2582;48.770;9.190;2023-09-07T04:02:17;5.00;;;4.50;;
5127;SDS011;2582;48.770;9.190;2023-09-07T04:04:43;5.53;;;4.90;;
5127;SDS011;2582;48.770;9.190;2023-09-07T04:07:13;6.07;;;5.50;;
5127;SDS011;2582;48.770;9.190;2023-09-07T04:09:38;6.77;;;6.17;;
5127;SDS011;2582;48.770;9.190;2023-09-07T04:12:04;5.50;;;5.03;;
5127;SDS011;2582;48.770;9.190;2023-09-07T04:14:31;5.47;;;5.07;;
5127;SDS011;2582;48.770;9.190;2023-09-07T04:16:57;5.90;;;5.40;;
5127;SDS011;2582;48.770;9.190;2023-09-07T04:19:23;7.10;;;5.23;;
5127;SDS011;2582;48.770;9.190;2023-09-07T04:21:48;6.00;;;5.40;;
5127;SDS011;2582;48.770;9.190;2023-09-07T04:24:14;6.30;;;5.70;;
5127;SDS011;2582;48.770;9.190;2023-09-07T04:26:39;5.83;;;5.23;;
5127;SDS011;2582;48.770;9.190;2023-09-07T04:29:06;9.70;;;5.57;;
5127;SDS011;2582;48.770;9.190;2023-09-07T04:31:33;6.50;;;6.00;;
5127;SDS011;2582;48.770;9.190;2023-09-07T04:33:58;5.60;;;5.10;;
5127;SDS011;2582;48.770;9.190;2023-09-07T04:36:25;12.27;;;6.57;;
5127;SDS011;2582;48.770;9.190;2023-09-07T04:38:50;7.23;;;5.97;;
5127;SDS011;2582;48.770;9.190;2023-09-07T04:41:16;6.30;;;5.70;;
5127;SDS011;2582;48.770;9.190;2023-09-07T04:43:42;6.00;;;5.50;;
5127;SDS011;2582;48.770;9.190;2023-09-07T04:46:08;5.90;;;5.40;;
5127;SDS011;2582;48.770;9.190;2023-09-07T04:48:34;6.50;;;5.90;;
5127;SDS011;2582;48.770;9.190;2023-09-07T04:51:01;6.10;;;5.60;;
5127;SDS011;2582;48.770;9.190;2023-09-07T04:53:28;6.40;;;5.80;;
5127;SDS011;2582;48.770;9.190;2023-09-07T04:55:55;7.97;;;6.20;;
5127;SDS011;2582;48.770;9.190;2023-09-07T04:58:21;5.80;;;5.30;;
5127;SDS011;2582;48.770;9.190;2023-09-07T05:00:47;7.00;;;6.33;;
5127;SDS011;2582;48.770;9.190;2023-09-07T05:03:13;6.93;;;5.67;;
5127;SDS011;2582;48.770;9.190;2023-09-07T05:05:39;6.03;;;5.47;;
5127;SDS011;2582;48.770;9.190;2023-09-07T05:08:06;5.50;;;5.00;;
5127;SDS011;2582;48.770;9.190;2023-09-07T05:10:34;6.30;;;5.70;;
5127;SDS011;2582;48.770;9.190;2023-09-07T05:13:00;10.00;;;6.87;;
5127;SDS011;2582;48.770;9.190;2023-09-07T05:15:26;6.63;;;6.03;;
5127;SDS011;2582;48.770;9.190;2023-09-07T05:17:52;6.50;;;5.83;;
5127;SDS011;2582;48.770;9.190;2023-09-07T05:20:18;6.50;;;5.90;;
5127;SDS011;2582;48.770;9.190;2023-09-07T05:22:44;7.43;;;6.70;;
5127;SDS011;2582;48.770;9.190;2023-09-07T05:25:10;6.57;;;5.97;;
5127;SDS011;2582;48.770;9.190;2023-09-07T05:27:36;6.03;;;5.53;;
5127;SDS011;2582;48.770;9.190;2023-09-07T05:30:02;7.23;;;5.60;;
5127;SDS011;2582;48.770;9.190;2023-09-07T05:32:28;6.73;;;6.13;;
5127;SDS011;2582;48.770;9.190;2023-09-07T05:34:54;6.37;;;5.77;;
5127;SDS011;2582;48.770;9.190;2023-09-07T05:37:19;5.77;;;5.27;;
5127;SDS011;2582;48.770;9.190;2023-09-07T05:39:45;6.53;;;5.93;;
5127;SDS011;2582;48.770;9.190;2023-09-07T05:42:11;7.70;;;6.10;;
5127;SDS011;2582;48.770;9.190;2023-09-07T05:44:37;8.13;;;6.40;;
5127;SDS011;2582;48.770;9.190;2023-09-07T05:47:03;6.43;;;5.80;;
5127;SDS011;2582;48.770;9.190;2023-09-07T05:49:29;7.07;;;6.40;;
5127;SDS011;2582;48.770;9.190;2023-09-07T05:51:55;7.50;;;6.50;;
5127;SDS011;2582;48.770;9.190;2023-09-07T05:54:20;6.60;;;6.03;;
5127;SDS011;2582;48.770;9.190;2023-09-07T05:56:46;8.63;;;7.50;;
5127;SDS011;2582;48.770;9.190;2023-09-07T05:59:12;6.70;;;5.93;;
5127;SDS011;2582;48.770;9.190;2023-09-07T06:01:38;10.50;;;6.80;;
5127;SDS011;2582;48.770;9.190;2023-09-07T06:04:05;7.60;;;6.77;;
5127;SDS011;2582;48.770;9.190;2023-09-07T06:06:31;6.80;;;6.30;;
5127;SDS011;2582;48.770;9.190;2023-09-07T06:08:56;7.60;;;6.03;;
5127;SDS011;2582;48.770;9.190;2023-09-07T06:11:24;8.00;;;6.40;;
5127;SDS011;2582;48.770;9.190;2023-09-07T06:13:49;5.93;;;5.43;;
5127;SDS011;2582;48.770;9.190;2023-09-07T06:16:15;7.27;;;6.57;;
5127;SDS011;2582;48.770;9.190;2023-09-07T06:18:41;8.10;;;5.97;;
5127;SDS011;2582;48.770;9.190;2023-09-07T06:21:07;11.53;;;7.37;;
5127;SDS011;2582;48.770;9.190;2023-09-07T06:23:32;6.77;;;6.17;;
5127;SDS011;2582;48.770;9.190;2023-09-07T06:25:58;6.80;;;6.10;;
5127;SDS011;2582;48.770;9.190;2023-09-07T06:28:24;7.03;;;6.27;;
5127;SDS011;2582;48.770;9.190;2023-09-07T06:30:50;7.80;;;7.10;;
5127;SDS011;2582;48.770;9.190;2023-09-07T06:33:15;6.30;;;5.70;;
5127;SDS011;2582;48.770;9.190;2023-09-07T06:35:42;7.50;;;6.17;;
5127;SDS011;2582;48.770;9.190;2023-09-07T06:38:07;8.13;;;6.50;;
5127;SDS011;2582;48.770;9.190;2023-09-07T06:40:33;7.40;;;6.70;;
5127;SDS011;2582;48.770;9.190;2023-09-07T06:42:58;9.80;;;6.40;;
5127;SDS011;2582;48.770;9.190;2023-09-07T06:45:25;7.13;;;6.40;;
5127;SDS011;2582;48.770;9.190;2023-09-07T06:47:50;6.27;;;5.67;;
5127;SDS011;2582;48.770;9.190;2023-09-07T06:50:16;7.37;;;6.67;;
5127;SDS011;2582;48.770;9.190;2023-09-07T06:52:42;8.10;;;5.70;;
5127;SDS011;2582;48.770;9.190;2023-09-07T06:55:07;6.30;;;5.70;;
5127;SDS011;2582;48.770;9.190;2023-09-07T06:57:33;7.40;;;6.17;;
5127;SDS011;2582;48.770;9.190;2023-09-07T06:59:59;7.40;;;6.70;;
5127;SDS011;2582;48.770;9.190;2023-09-07T07:02:24;9.07;;;8.07;;
5127;SDS011;2582;48.770;9.190;2023-09-07T07:04:50;8.40;;;6.60;;
5127;SDS011;2582;48.770;9.190;2023-09-07T07:07:16;7.80;;;7.00;;
5127;SDS011;2582;48.770;9.190;2023-09-07T07:09:42;8.67;;;7.77;;
5127;SDS011;2582;48.770;9.190;2023-09-07T07:12:08;8.43;;;7.63;;
5127;SDS011;2582;48.770;9.190;2023-09-07T07:14:34;9.13;;;8.20;;
5127;SDS011;2582;48.770;9.190;2023-09-07T07:16:59;8.70;;;7.90;;
5127;SDS011;2582;48.770;9.190;2023-09-07T07:19:28;9.83;;;8.83;;
5127;SDS011;2582;48.770;9.190;2023-09-07T07:21:54;9.30;;;8.30;;
5127;SDS011;2582;48.770;9.190;2023-09-07T07:24:19;7.30;;;6.70;;
5127;SDS011;2582;48.770;9.190;2023-09-07T07:26:45;8.87;;;7.97;;
5127;SDS011;2582;48.770;9.190;2023-09-07T07:29:11;7.63;;;6.90;;
5127;SDS011;2582;48.770;9.190;2023-09-07T07:34:12;10.27;;;7.30;;
5127;SDS011;2582;48.770;9.190;2023-09-07T07:36:38;8.80;;;7.67;;
5127;SDS011;2582;48.770;9.190;2023-09-07T07:39:04;7.93;;;7.17;;
5127;SDS011;2582;48.770;9.190;2023-09-07T07:41:32;7.50;;;6.90;;
5127;SDS011;2582;48.770;9.190;2023-09-07T07:43:57;7.03;;;6.30;;
5127;SDS011;2582;48.770;9.190;2023-09-07T07:46:23;6.83;;;6.10;;
5127;SDS011;2582;48.770;9.190;2023-09-07T07:48:49;7.23;;;6.43;;
5127;SDS011;2582;48.770;9.190;2023-09-07T07:51:14;8.13;;;7.37;;
5127;SDS011;2582;48.770;9.190;2023-09-07T07:53:40;7.40;;;6.80;;
5127;SDS011;2582;48.770;9.190;2023-09-07T07:56:05;6.90;;;6.30;;
5127;SDS011;2582;48.770;9.190;2023-09-07T07:58:39;8.67;;;7.80;;
5127;SDS011;2582;48.770;9.190;2023-09-07T08:01:12;7.10;;;6.50;;
5127;SDS011;2582;48.770;9.190;2023-09-07T08:03:41;7.50;;;6.80;;
5127;SDS011;2582;48.770;9.190;2023-09-07T08:06:07;6.90;;;6.33;;
5127;SDS011;2582;48.770;9.190;2023-09-07T08:08:32;7.10;;;6.50;;
5127;SDS011;2582;48.770;9.190;2023-09-07T08:10:58;7.27;;;6.57;;
5127;SDS011;2582;48.770;9.190;2023-09-07T08:13:25;8.30;;;7.27;;
5127;SDS011;2582;48.770;9.190;2023-09-07T08:15:50;8.83;;;7.07;;
5127;SDS011;2582;48.770;9.190;2023-09-07T08:18:16;7.93;;;7.13;;
5127;SDS011;2582;48.770;9.190;2023-09-07T08:20:41;7.63;;;6.90;;
5127;SDS011;2582;48.770;9.190;2023-09-07T08:23:07;6.87;;;6.20;;
5127;SDS011;2582;48.770;9.190;2023-09-07T08:25:34;8.37;;;7.40;;
5127;SDS011;2582;48.770;9.190;2023-09-07T08:28:00;7.97;;;6.10;;
5127;SDS011;2582;48.770;9.190;2023-09-07T08:30:30;9.57;;;8.70;;
5127;SDS011;2582;48.770;9.190;2023-09-07T08:32:55;7.57;;;6.77;;
5127;SDS011;2582;48.770;9.190;2023-09-07T08:35:21;7.50;;;6.90;;
5127;SDS011;2582;48.770;9.190;2023-09-07T08:37:51;9.00;;;8.10;;
5127;SDS011;2582;48.770;9.190;2023-09-07T08:40:17;8.20;;;7.50;;
5127;SDS011;2582;48.770;9.190;2023-09-07T08:42:44;7.80;;;7.10;;
5127;SDS011;2582;48.770;9.190;2023-09-07T08:45:09;7.33;;;6.63;;
5127;SDS011;2582;48.770;9.190;2023-09-07T08:47:40;7.90;;;7.10;;
5127;SDS011;2582;48.770;9.190;2023-09-07T08:50:07;7.53;;;6.87;;
5127;SDS011;2582;48.770;9.190;2023-09-07T08:52:35;8.97;;;6.20;;
5127;SDS011;2582;48.770;9.190;2023-09-07T08:55:01;10.20;;;6.93;;
5127;SDS011;2582;48.770;9.190;2023-09-07T08:57:29;8.17;;;7.13;;
5127;SDS011;2582;48.770;9.190;2023-09-07T08:59:55;7.10;;;6.40;;
5127;SDS011;2582;48.770;9.190;2023-09-07T09:02:21;10.60;;;7.57;;
5127;SDS011;2582;48.770;9.190;2023-09-07T09:04:47;7.60;;;7.00;;
5127;SDS011;2582;48.770;9.190;2023-09-07T09:07:12;8.93;;;8.17;;
5127;SDS011;2582;48.770;9.190;2023-09-07T09:09:38;8.63;;;7.73;;
5127;SDS011;2582;48.770;9.190;2023-09-07T09:12:07;8.03;;;7.07;;
5127;SDS011;2582;48.770;9.190;2023-09-07T09:14:36;7.70;;;7.00;;
5127;SDS011;2582;48.770;9.190;2023-09-07T09:17:02;7.67;;;6.97;;
5127;SDS011;2582;48.770;9.190;2023-09-07T09:19:31;8.40;;;6.10;;
5127;SDS011;2582;48.770;9.190;2023-09-07T09:21:58;7.67;;;6.87;;
5127;SDS011;2582;48.770;9.190;2023-09-07T09:24:23;8.03;;;7.30;;
5127;SDS011;2582;48.770;9.190;2023-09-07T09:26:49;7.53;;;6.83;;
5127;SDS011;2582;48.770;9.190;2023-09-07T09:29:15;8.93;;;7.40;;
5127;SDS011;2582;48.770;9.190;2023-09-07T09:31:40;7.77;;;7.10;;
5127;SDS011;2582;48.770;9.190;2023-09-07T09:34:06;8.57;;;7.63;;
5127;SDS011;2582;48.770;9.190;2023-09-07T09:36:32;8.53;;;7.60;;
5127;SDS011;2582;48.770;9.190;2023-09-07T09:38:59;7.27;;;6.67;;
5127;SDS011;2582;48.770;9.190;2023-09-07T09:41:25;8.60;;;7.80;;
5127;SDS011;2582;48.770;9.190;2023-09-07T09:43:52;7.23;;;6.67;;
5127;SDS011;2582;48.770;9.190;2023-09-07T09:46:20;7.80;;;7.10;;
5127;SDS011;2582;48.770;9.190;2023-09-07T09:48:47;8.03;;;7.33;;
5127;SDS011;2582;48.770;9.190;2023-09-07T09:51:14;7.83;;;6.60;;
5127;SDS011;2582;48.770;9.190;2023-09-07T09:53:39;8.50;;;7.70;;
5127;SDS011;2582;48.770;9.190;2023-09-07T09:56:07;7.57;;;6.87;;
5127;SDS011;2582;48.770;9.190;2023-09-07T09:58:32;6.53;;;6.03;;
5127;SDS011;2582;48.770;9.190;2023-09-07T10:00:58;6.93;;;6.30;;
5127;SDS011;2582;48.770;9.190;2023-09-07T10:03:34;7.03;;;6.50;;
5127;SDS011;2582;48.770;9.190;2023-09-07T10:06:11;8.60;;;7.90;;
5127;SDS011;2582;48.770;9.190;2023-09-07T10:08:37;7.77;;;7.07;;
5127;SDS011;2582;48.770;9.190;2023-09-07T10:11:08;6.93;;;6.17;;
5127;SDS011;2582;48.770;9.190;2023-09-07T10:13:34;7.50;;;6.90;;
5127;SDS011;2582;48.770;9.190;2023-09-07T10:16:04;7.93;;;5.90;;
5127;SDS011;2582;48.770;9.190;2023-09-07T10:18:35;8.63;;;7.77;;
5127;SDS011;2582;48.770;9.190;2023-09-07T10:21:04;7.53;;;6.90;;
5127;SDS011;2582;48.770;9.190;2023-09-07T10:23:49;6.70;;;6.20;;
5127;SDS011;2582;48.770;9.190;2023-09-07T10:26:17;7.63;;;6.80;;
5127;SDS011;2582;48.770;9.190;2023-09-07T10:28:45;7.87;;;7.07;;
5127;SDS011;2582;48.770;9.190;2023-09-07T10:31:15;6.77;;;6.07;;
5127;SDS011;2582;48.770;9.190;2023-09-07T10:33:45;9.60;;;7.27;;
5127;SDS011;2582;48.770;9.190;2023-09-07T10:36:25;7.90;;;7.20;;
5127;SDS011;2582;48.770;9.190;2023-09-07T10:38:52;7.23;;;6.43;;
5127;SDS011;2582;48.770;9.190;2023-09-07T10:41:19;8.23;;;7.50;;
5127;SDS011;2582;48.770;9.190;2023-09-07T10:43:49;9.93;;;8.40;;
5127;SDS011;2582;48.770;9.190;2023-09-07T10:46:20;9.13;;;8.30;;
5127;SDS011;2582;48.770;9.190;2023-09-07T10:48:50;9.67;;;7.80;;
5127;SDS011;2582;48.770;9.190;2023-09-07T10:51:17;10.43;;;8.00;;
5127;SDS011;2582;48.770;9.190;2023-09-07T10:53:43;9.43;;;7.37;;
5127;SDS011;2582;48.770;9.190;2023-09-07T10:56:08;8.67;;;6.57;;
5127;SDS011;2582;48.770;9.190;2023-09-07T10:58:35;7.80;;;7.03;;
5127;SDS011;2582;48.770;9.190;2023-09-07T11:01:03;7.47;;;6.80;;
5127;SDS011;2582;48.770;9.190;2023-09-07T11:03:30;7.30;;;6.70;;
5127;SDS011;2582;48.770;9.190;2023-09-07T11:06:02;7.00;;;6.30;;
5127;SDS011;2582;48.770;9.190;2023-09-07T11:08:33;6.70;;;6.20;;
5127;SDS011;2582;48.770;9.190;2023-09-07T11:11:00;7.00;;;6.30;;
5127;SDS011;2582;48.770;9.190;2023-09-07T11:13:29;7.93;;;6.50;;
5127;SDS011;2582;48.770;9.190;2023-09-07T11:15:55;9.13;;;7.10;;
5127;SDS011;2582;48.770;9.190;2023-09-07T11:18:22;7.10;;;6.43;;
5127;SDS011;2582;48.770;9.190;2023-09-07T11:20:48;8.37;;;6.73;;
5127;SDS011;2582;48.770;9.190;2023-09-07T11:23:14;7.17;;;5.47;;
5127;SDS011;2582;48.770;9.190;2023-09-07T11:25:41;7.17;;;6.53;;
5127;SDS011;2582;48.770;9.190;2023-09-07T11:28:08;6.97;;;6.27;;
5127;SDS011;2582;48.770;9.190;2023-09-07T11:30:35;7.50;;;6.60;;
5127;SDS011;2582;48.770;9.190;2023-09-07T11:33:09;6.20;;;5.70;;
5127;SDS011;2582;48.770;9.190;2023-09-07T11:35:35;6.33;;;5.53;;
5127;SDS011;2582;48.770;9.190;2023-09-07T11:38:01;6.70;;;6.20;;
5127;SDS011;2582;48.770;9.190;2023-09-07T11:40:28;6.37;;;5.63;;
5127;SDS011;2582;48.770;9.190;2023-09-07T11:42:54;7.13;;;6.27;;
5127;SDS011;2582;48.770;9.190;2023-09-07T11:45:20;6.73;;;6.13;;
5127;SDS011;2582;48.770;9.190;2023-09-07T11:47:46;6.97;;;6.37;;
5127;SDS011;2582;48.770;9.190;2023-09-07T11:50:12;9.73;;;5.70;;
5127;SDS011;2582;48.770;9.190;2023-09-07T11:52:37;6.63;;;5.30;;
5127;SDS011;2582;48.770;9.190;2023-09-07T11:55:03;5.70;;;5.10;;
5127;SDS011;2582;48.770;9.190;2023-09-07T11:57:29;6.00;;;5.13;;
5127;SDS011;2582;48.770;9.190;2023-09-07T11:59:55;5.60;;;5.10;;
5127;SDS011;2582;48.770;9.190;2023-09-07T12:02:21;5.43;;;5.03;;
5127;SDS011;2582;48.770;9.190;2023-09-07T12:04:47;5.87;;;5.27;;
5127;SDS011;2582;48.770;9.190;2023-09-07T12:07:13;5.00;;;4.60;;
5127;SDS011;2582;48.770;9.190;2023-09-07T12:09:39;5.03;;;4.63;;
5127;SDS011;2582;48.770;9.190;2023-09-07T12:12:05;5.73;;;5.17;;
5127;SDS011;2582;48.770;9.190;2023-09-07T12:14:31;5.00;;;4.50;;
5127;SDS011;2582;48.770;9.190;2023-09-07T12:16:56;6.87;;;4.90;;
5127;SDS011;2582;48.770;9.190;2023-09-07T12:19:22;5.87;;;5.47;;
5127;SDS011;2582;48.770;9.190;2023-09-07T12:21:48;5.67;;;5.20;;
5127;SDS011;2582;48.770;9.190;2023-09-07T12:24:13;5.20;;;4.70;;
5127;SDS011;2582;48.770;9.190;2023-09-07T12:26:39;5.20;;;4.70;;
5127;SDS011;2582;48.770;9.190;2023-09-07T12:29:04;4.90;;;4.40;;
5127;SDS011;2582;48.770;9.190;2023-09-07T12:31:30;4.93;;;4.43;;
5127;SDS011;2582;48.770;9.190;2023-09-07T12:33:56;4.87;;;4.47;;
5127;SDS011;2582;48.770;9.190;2023-09-07T12:36:22;4.30;;;3.90;;
5127;SDS011;2582;48.770;9.190;2023-09-07T12:38:48;5.33;;;4.83;;
5127;SDS011;2582;48.770;9.190;2023-09-07T12:41:14;5.27;;;4.87;;
5127;SDS011;2582;48.770;9.190;2023-09-07T12:43:40;6.00;;;4.97;;
5127;SDS011;2582;48.770;9.190;2023-09-07T12:46:07;4.67;;;4.27;;
5127;SDS011;2582;48.770;9.190;2023-09-07T12:48:33;5.70;;;4.90;;
5127;SDS011;2582;48.770;9.190;2023-09-07T12:50:59;4.53;;;4.13;;
5127;SDS011;2582;48.770;9.190;2023-09-07T12:53:24;5.63;;;4.60;;
5127;SDS011;2582;48.770;9.190;2023-09-07T12:55:51;3.90;;;3.60;;
5127;SDS011;2582;48.770;9.190;2023-09-07T12:58:18;9.37;;;4.90;;
5127;SDS011;2582;48.770;9.190;2023-09-07T13:00:44;4.83;;;4.43;;
5127;SDS011;2582;48.770;9.190;2023-09-07T13:03:09;5.03;;;4.50;;
5127;SDS011;2582;48.770;9.190;2023-09-07T13:05:36;4.27;;;3.93;;
5127;SDS011;2582;48.770;9.190;2023-09-07T13:08:02;4.60;;;4.20;;
5127;SDS011;2582;48.770;9.190;2023-09-07T13:10:28;5.13;;;4.00;;
5127;SDS011;2582;48.770;9.190;2023-09-07T13:12:54;4.67;;;4.27;;
5127;SDS011;2582;48.770;9.190;2023-09-07T13:15:20;4.40;;;4.10;;
5127;SDS011;2582;48.770;9.190;2023-09-07T13:17:46;7.43;;;3.73;;
5127;SDS011;2582;48.770;9.190;2023-09-07T13:20:11;4.53;;;4.13;;
5127;SDS011;2582;48.770;9.190;2023-09-07T13:22:37;4.10;;;3.80;;
5127;SDS011;2582;48.770;9.190;2023-09-07T13:25:03;3.93;;;3.63;;
5127;SDS011;2582;48.770;9.190;2023-09-07T13:27:30;4.57;;;4.27;;
5127;SDS011;2582;48.770;9.190;2023-09-07T13:29:56;4.30;;;4.00;;
5127;SDS011;2582;48.770;9.190;2023-09-07T13:32:22;4.40;;;4.00;;
5127;SDS011;2582;48.770;9.190;2023-09-07T13:34:49;3.87;;;3.37;;
5127;SDS011;2582;48.770;9.190;2023-09-07T13:37:14;5.87;;;3.73;;
5127;SDS011;2582;48.770;9.190;2023-09-07T13:39:40;4.00;;;3.70;;
5127;SDS011;2582;48.770;9.190;2023-09-07T13:42:05;4.87;;;4.10;;
5127;SDS011;2582;48.770;9.190;2023-09-07T13:44:31;5.37;;;4.00;;
5127;SDS011;2582;48.770;9.190;2023-09-07T13:46:57;4.30;;;4.00;;
5127;SDS011;2582;48.770;9.190;2023-09-07T13:49:23;4.30;;;3.90;;
5127;SDS011;2582;48.770;9.190;2023-09-07T13:51:48;3.73;;;3.43;;
5127;SDS011;2582;48.770;9.190;2023-09-07T13:54:14;4.27;;;3.63;;
5127;SDS011;2582;48.770;9.190;2023-09-07T13:56:39;3.60;;;3.30;;
5127;SDS011;2582;48.770;9.190;2023-09-07T13:59:07;4.33;;;4.03;;
5127;SDS011;2582;48.770;9.190;2023-09-07T14:01:32;4.40;;;4.00;;
5127;SDS011;2582;48.770;9.190;2023-09-07T14:03:58;4.60;;;4.20;;
5127;SDS011;2582;48.770;9.190;2023-09-07T14:06:24;4.00;;;3.70;;
5127;SDS011;2582;48.770;9.190;2023-09-07T14:08:50;3.40;;;3.20;;
5127;SDS011;2582;48.770;9.190;2023-09-07T14:11:18;3.60;;;3.27;;
5127;SDS011;2582;48.770;9.190;2023-09-07T14:13:44;4.07;;;3.77;;
5127;SDS011;2582;48.770;9.190;2023-09-07T14:16:11;4.30;;;3.90;;
5127;SDS011;2582;48.770;9.190;2023-09-07T14:18:37;4.33;;;3.87;;
5127;SDS011;2582;48.770;9.190;2023-09-07T14:21:03;4.80;;;4.23;;
5127;SDS011;2582;48.770;9.190;2023-09-07T14:23:28;5.87;;;4.00;;
5127;SDS011;2582;48.770;9.190;2023-09-07T14:25:55;3.97;;;3.67;;
5127;SDS011;2582;48.770;9.190;2023-09-07T14:28:20;3.97;;;3.57;;
5127;SDS011;2582;48.770;9.190;2023-09-07T14:30:46;4.20;;;3.80;;
5127;SDS011;2582;48.770;9.190;2023-09-07T14:33:12;3.80;;;3.50;;
5127;SDS011;2582;48.770;9.190;2023-09-07T14:35:38;3.70;;;3.40;;
5127;SDS011;2582;48.770;9.190;2023-09-07T14:38:04;4.57;;;3.80;;
5127;SDS011;2582;48.770;9.190;2023-09-07T14:40:30;4.13;;;3.83;;
5127;SDS011;2582;48.770;9.190;2023-09-07T14:42:55;3.80;;;3.50;;
5127;SDS011;2582;48.770;9.190;2023-09-07T14:45:22;5.37;;;4.17;;
5127;SDS011;2582;48.770;9.190;2023-09-07T14:47:49;4.73;;;4.00;;
5127;SDS011;2582;48.770;9.190;2023-09-07T14:50:15;4.37;;;3.97;;
5127;SDS011;2582;48.770;9.190;2023-09-07T14:52:41;4.07;;;3.70;;
5127;SDS011;2582;48.770;9.190;2023-09-07T14:55:09;4.17;;;3.77;;
5127;SDS011;2582;48.770;9.190;2023-09-07T14:57:34;3.87;;;3.57;;
5127;SDS011;2582;48.770;9.190;2023-09-07T15:00:00;3.87;;;3.57;;
5127;SDS011;2582;48.770;9.190;2023-09-07T15:02:27;4.33;;;4.03;;
5127;SDS011;2582;48.770;9.190;2023-09-07T15:04:52;4.13;;;3.83;;
5127;SDS011;2582;48.770;9.190;2023-09-07T15:07:18;4.63;;;3.73;;
5127;SDS011;2582;48.770;9.190;2023-09-07T15:09:45;5.40;;;3.70;;
5127;SDS011;2582;48.770;9.190;2023-09-07T15:12:10;3.87;;;3.57;;